• Join FlightAware (Why Join?)
  • Login
  • US Flag 
02:32PM EST


 

Airport Tracker/Info


-or-


 

Live Flight TrackerFlight Track Log ✈ FLG3306 ✈ 27-May-2013 ✈ KDFW - KCVG

Flight Track Log - Related Links

Times and Time Zones

All times are in EDT time to prevent confusion due to time zone crossing. See the FLG3306 flight status page for this flight to view local times or setup timezone preferences in your user account.

Time Position Orientation Groundspeed Altitude Reporting Facility
EDT Latitude Longitude Course Direction KTS MPH feet Rate Location/Type
08:53AM 32.8833 -97.0333 57° Northeast 142 163 1,100  Level Dallas / Fort Worth TRACON
08:53AM 32.8667 -97.0333 180° South 147 169 2,100 2,040 Climbing Dallas / Fort Worth TRACON
08:54AM 32.8333 -97.0167 157° South 197 227 4,000 2,100 Climbing Dallas / Fort Worth TRACON
08:55AM 32.7667 -96.9667 148° Southeast 270 311 6,300 2,580 Climbing Dallas / Fort Worth TRACON
08:56AM 32.8121 -96.7440 53° Northeast  Level FlightAware Approximate
08:56AM 32.7667 -96.8667 90° East 278 320 9,200  Level Dallas / Fort Worth TRACON
08:57AM 32.8830 -96.6339 52° Northeast  Level FlightAware Approximate
08:57AM 32.8000 -96.7833 65° Northeast 331 381 10,500  Level Dallas / Fort Worth TRACON
08:58AM 32.9547 -96.5247 57° Northeast  Level FlightAware Approximate
08:58AM 32.8500 -96.6833 59° Northeast 347 399 12,700  Level Dallas / Fort Worth TRACON
08:59AM 32.9061 -96.6142 46° Northeast 358 412 14,600 2,160 Climbing Fort Worth Center
09:00AM 32.9556 -96.5369 53° Northeast 388 447 16,600 1,920 Climbing Fort Worth Center
09:01AM 33.0236 -96.4297 53° Northeast 382 440 18,500 1,800 Climbing Fort Worth Center
09:02AM 33.0833 -96.3250 56° Northeast 382 440 20,300 1,500 Climbing Fort Worth Center
09:03AM 33.1219 -96.2006 70° East 382 440 21,500 1,380 Climbing Fort Worth Center
09:04AM 33.1622 -96.0658 70° East 416 479 23,100 1,500 Climbing Fort Worth Center
09:05AM 33.2003 -95.9289 72° East 428 493 24,600 1,320 Climbing Fort Worth Center
09:06AM 33.2425 -95.7892 70° East 433 498 25,800 1,320 Climbing Fort Worth Center
09:07AM 33.2844 -95.6467 71° East 439 505 27,300 1,200 Climbing Fort Worth Center
09:08AM 33.3181 -95.5192 72° East 445 512 28,300 1,140 Climbing Fort Worth Center
09:09AM 33.3617 -95.3714 71° East 445 512 29,600 1,320 Climbing Fort Worth Center
09:10AM 33.4050 -95.2236 71° East 456 525 31,000 1,500 Climbing Fort Worth Center
09:11AM 33.4464 -95.0783 71° East 461 531 32,600 1,380 Climbing Fort Worth Center
09:12AM 33.4914 -94.9325 70° East 461 531 33,800 1,080 Climbing Fort Worth Center
09:13AM 33.5342 -94.7769 72° East 461 531 34,800 900 Climbing Fort Worth Center
09:15AM 33.6303 -94.4336 71° East 449 517 37,000 600 Climbing Memphis Center
09:16AM 33.6747 -94.2861 70° East 455 524 37,000  Level Memphis Center
09:17AM 33.7314 -94.1389 65° Northeast 468 539 37,000  Level Memphis Center
09:18AM 33.8003 -94.0017 59° Northeast 473 544 37,000  Level Memphis Center
09:19AM 33.8669 -93.8619 60° Northeast 473 544 37,000  Level Memphis Center
09:20AM 33.9375 -93.7247 58° Northeast 473 544 37,000  Level Memphis Center
09:21AM 33.9928 -93.6114 60° Northeast 473 544 37,000  Level Memphis Center
09:22AM 34.0653 -93.4639 59° Northeast 473 544 37,000  Level Memphis Center
09:23AM 34.1333 -93.3233 60° Northeast 478 550 37,000  Level Memphis Center
09:24AM 34.2014 -93.1850 59° Northeast 478 550 37,000  Level Memphis Center
09:25AM 34.2711 -93.0464 59° Northeast 478 550 37,000  Level Memphis Center
09:26AM 34.3325 -92.9000 63° Northeast 478 550 37,000  Level Memphis Center
09:27AM 34.4000 -92.7586 60° Northeast 478 550 37,000  Level Memphis Center
09:28AM 34.4694 -92.6194 59° Northeast 478 550 37,000  Level Memphis Center
09:29AM 34.5367 -92.4775 60° Northeast 478 550 37,000  Level Memphis Center
09:30AM 34.6017 -92.3378 60° Northeast 478 550 37,000  Level Memphis Center
09:31AM 34.6683 -92.1981 60° Northeast 478 550 37,000  Level Memphis Center
09:32AM 34.7536 -92.0811 48° Northeast 472 543 37,000  Level Memphis Center
09:33AM 34.8447 -91.9664 46° Northeast 466 536 37,000  Level Memphis Center
09:34AM 34.9422 -91.8417 46° Northeast 461 531 37,000  Level Memphis Center
09:35AM 35.0292 -91.7264 47° Northeast 461 531 37,000  Level Memphis Center
09:36AM 35.1200 -91.6136 45° Northeast 461 531 37,000  Level Memphis Center
09:37AM 35.2086 -91.4981 47° Northeast 461 531 37,000  Level Memphis Center
09:38AM 35.2994 -91.3822 46° Northeast 461 531 37,000  Level Memphis Center
09:39AM 35.3900 -91.2636 47° Northeast 467 537 37,000  Level Memphis Center
09:40AM 35.4742 -91.1575 46° Northeast 467 537 37,000  Level Memphis Center
09:41AM 35.5731 -91.0283 47° Northeast 472 543 37,000  Level Memphis Center
09:42AM 35.6611 -90.9114 47° Northeast 465 535 37,000  Level Memphis Center
09:43AM 35.7450 -90.7919 49° Northeast 460 529 37,000  Level Memphis Center
09:44AM 35.8331 -90.6744 47° Northeast 460 529 37,000  Level Memphis Center
09:45AM 35.9228 -90.5594 46° Northeast 460 529 37,000  Level Memphis Center
09:46AM 36.0106 -90.4417 47° Northeast 465 535 37,000  Level Memphis Center
09:47AM 36.1003 -90.3236 47° Northeast 465 535 37,000  Level Memphis Center
09:48AM 36.1836 -90.2078 48° Northeast 465 535 37,000  Level Memphis Center
09:49AM 36.2750 -90.0867 47° Northeast 465 535 37,000  Level Memphis Center
09:50AM 36.3581 -89.9575 51° Northeast 470 541 37,000  Level Memphis Center
09:51AM 36.4158 -89.8308 60° Northeast 470 541 37,000 -540 Level Memphis Center
09:52AM 36.4819 -89.6858 60° Northeast 476 548 36,000 -1,020 Descending Memphis Center
09:53AM 36.5394 -89.5356 64° Northeast 476 548 35,000 -720 Descending Memphis Center
09:54AM 36.5925 -89.3800 67° East 470 541 34,600 -780 Descending Memphis Center
09:55AM 36.6392 -89.2294 69° East 475 547 33,500 -1,080 Descending Memphis Center
09:56AM 36.7275 -89.1067 48° Northeast 467 537 32,500 -1,020 Descending Memphis Center
09:57AM 36.8286 -88.9961 41° Northeast 462 532 31,500 -780 Descending Memphis Center
09:58AM 36.9314 -88.8853 41° Northeast 467 537 31,000 -300 Descending Memphis Center
09:59AM 37.0342 -88.7717 41° Northeast 480 552 31,000  Level Memphis Center
10:00AM 37.1369 -88.6578 41° Northeast 486 559 31,000  Level Memphis Center
10:01AM 37.2414 -88.5436 41° Northeast 486 559 31,000  Level Memphis Center
10:03AM 37.4381 -88.3169 42° Northeast 494 568 31,000  Level Indianapolis Center
10:04AM 37.5386 -88.2033 42° Northeast 483 556 31,000  Level Indianapolis Center
10:05AM 37.6422 -88.0883 41° Northeast 489 563 31,000  Level Indianapolis Center
10:06AM 37.7428 -87.9731 42° Northeast 484 557 31,000 -240 Level Indianapolis Center
10:07AM 37.8511 -87.8494 42° Northeast 485 558 30,600 -900 Descending Indianapolis Center
10:09AM 37.9047 -87.6928 67° East 479 551 29,200 -1,380 Descending Indianapolis Center
10:10AM 37.9569 -87.5403 66° East 473 544 27,800 -1,380 Descending Indianapolis Center
10:11AM 38.0078 -87.3925 66° East 461 531 26,400 -1,320 Descending Indianapolis Center
10:12AM 38.0567 -87.2478 67° East 451 519 25,100 -720 Descending Indianapolis Center
10:13AM 38.1150 -87.0767 67° East 446 513 25,000 -600 Descending Indianapolis Center
10:14AM 38.1639 -86.9300 67° East 458 527 23,900 -1,260 Descending Indianapolis Center
10:15AM 38.2131 -86.7842 67° East 457 526 22,500 -1,380 Descending Indianapolis Center
10:16AM 38.2614 -86.6392 67° East 449 517 21,100 -780 Descending Indianapolis Center
10:17AM 38.3094 -86.4950 67° East 445 512 21,000 -60 Descending Indianapolis Center
10:18AM 38.3661 -86.3206 67° East 444 511 21,000 -540 Level Indianapolis Center
10:19AM 38.4164 -86.1767 66° East 446 513 20,000 -1,560 Descending Indianapolis Center
10:20AM 38.4697 -86.0308 65° Northeast 450 518 17,900 -1,800 Descending Indianapolis Center
10:21AM 38.5175 -85.8928 66° East 429 494 16,300 -1,680 Descending Indianapolis Center
10:22AM 38.5664 -85.7556 65° Northeast 425 489 14,500 -1,800 Descending Indianapolis Center
10:23AM 38.6139 -85.6200 66° East 418 481 12,700 -1,740 Descending Indianapolis Center
10:24AM 38.6625 -85.4794 66° East 405 466 11,000 -840 Descending Indianapolis Center
10:25AM 38.7153 -85.3575 61° Northeast 395 455 11,000  Level Indianapolis Center
10:26AM 38.7672 -85.2375 61° Northeast 389 448 11,000  Level Indianapolis Center
10:27AM 38.8197 -85.1156 61° Northeast 392 451 11,000 -120 Level Indianapolis Center
10:29AM 38.9167 -84.9000 60° Northeast 390 449 10,800 -540 Descending Cincinnati TRACON
10:29AM 38.9311 -84.8544 68° East 374 430 10,000 -1,320 Descending Indianapolis Center
10:30AM 38.9500 -84.8000 66° East 316 364 9,500 -660 Descending Cincinnati TRACON
10:31AM 39.0500 -84.7833 North 308 354 9,000 -1,080 Descending Cincinnati TRACON
10:32AM 39.1333 -84.7833 360° North 305 351 7,300 -1,560 Descending Cincinnati TRACON
10:32AM 39.1664 -84.7789 North 303 349 6,700 -1,620 Descending Indianapolis Center
10:33AM 39.2297 -84.7333 29° Northeast 294 338 4,800 -1,860 Descending Indianapolis Center